createdAt,value
2024-01-14T00:01:16.475Z,49.90
2024-01-14T00:04:04.364Z,49.90
2024-01-14T00:06:32.010Z,49.80
2024-01-14T00:08:59.673Z,49.96
2024-01-14T00:11:27.964Z,49.44
2024-01-14T00:13:55.651Z,49.78
2024-01-14T00:16:23.319Z,49.63
2024-01-14T00:18:51.043Z,49.46
2024-01-14T00:21:18.654Z,49.57
2024-01-14T00:23:46.958Z,49.79
2024-01-14T00:26:14.348Z,49.66
2024-01-14T00:28:42.081Z,49.71
2024-01-14T00:31:09.581Z,49.55
2024-01-14T00:33:37.695Z,49.67
2024-01-14T00:36:05.717Z,49.66
2024-01-14T00:38:33.546Z,49.36
2024-01-14T00:41:01.254Z,49.37
2024-01-14T00:43:29.211Z,49.39
2024-01-14T00:45:56.736Z,49.41
2024-01-14T00:48:24.558Z,49.78
2024-01-14T00:50:52.230Z,49.58
2024-01-14T00:53:19.840Z,49.42
2024-01-14T00:55:48.105Z,49.59
2024-01-14T00:58:16.060Z,49.27
2024-01-14T01:00:44.004Z,49.43
2024-01-14T01:03:12.077Z,49.51
2024-01-14T01:05:40.173Z,49.38
2024-01-14T01:08:07.848Z,49.53
2024-01-14T01:10:35.377Z,49.47
2024-01-14T01:13:03.270Z,49.53
2024-01-14T01:15:31.100Z,49.37
2024-01-14T01:17:58.897Z,49.38
2024-01-14T01:20:26.484Z,49.34
2024-01-14T01:22:54.767Z,49.36
2024-01-14T01:25:22.256Z,49.37
2024-01-14T01:27:49.900Z,49.27
2024-01-14T01:30:17.365Z,49.34
2024-01-14T01:32:45.268Z,49.37
2024-01-14T01:35:12.992Z,49.50
2024-01-14T01:37:40.802Z,49.57
2024-01-14T01:40:10.612Z,49.15
2024-01-14T01:42:38.300Z,49.46
2024-01-14T01:45:06.174Z,49.50
2024-01-14T01:47:34.638Z,49.16
2024-01-14T01:50:02.556Z,49.37
2024-01-14T01:52:30.689Z,49.54
2024-01-14T01:54:58.679Z,49.09
2024-01-14T01:57:28.956Z,49.24
2024-01-14T01:59:56.804Z,49.43
2024-01-14T02:02:24.765Z,49.21
2024-01-14T02:04:52.900Z,49.19
2024-01-14T02:07:23.409Z,49.42
2024-01-14T02:09:51.476Z,49.24
2024-01-14T02:12:19.137Z,49.38
2024-01-14T02:14:46.827Z,49.44
2024-01-14T02:17:14.494Z,49.15
2024-01-14T02:19:42.124Z,49.26
2024-01-14T02:22:17.307Z,49.44
2024-01-14T02:24:45.231Z,49.16
2024-01-14T02:27:12.974Z,49.21
2024-01-14T02:29:40.414Z,49.17
2024-01-14T02:32:07.949Z,49.03
2024-01-14T02:34:37.259Z,49.03
2024-01-14T02:37:05.136Z,49.02
2024-01-14T02:39:32.710Z,49.21
2024-01-14T02:42:00.637Z,49.31
2024-01-14T02:44:28.046Z,48.94
2024-01-14T02:46:55.808Z,49.22
2024-01-14T02:49:23.380Z,49.39
2024-01-14T02:51:51.274Z,49.26
2024-01-14T02:54:18.963Z,49.08
2024-01-14T02:56:46.606Z,49.09
2024-01-14T02:59:13.943Z,49.21
2024-01-14T03:01:47.516Z,48.97
2024-01-14T03:04:15.685Z,49.25
2024-01-14T03:06:43.887Z,48.98
2024-01-14T03:09:11.647Z,49.19
2024-01-14T03:11:39.293Z,49.17
2024-01-14T03:14:06.663Z,49.37
2024-01-14T03:16:34.283Z,49.06
2024-01-14T03:19:01.912Z,49.04
2024-01-14T03:21:29.845Z,49.05
2024-01-14T03:23:57.526Z,48.99
2024-01-14T03:26:25.141Z,49.25
2024-01-14T03:28:52.423Z,48.98
2024-01-14T03:31:20.178Z,48.89
2024-01-14T03:33:47.671Z,48.89
2024-01-14T03:36:16.069Z,49.26
2024-01-14T03:38:43.898Z,49.04
2024-01-14T03:41:12.484Z,49.19
2024-01-14T03:43:39.896Z,49.07
2024-01-14T03:46:08.338Z,48.95
2024-01-14T03:48:35.768Z,48.91
2024-01-14T03:51:03.939Z,48.87
2024-01-14T03:53:31.307Z,49.03
2024-01-14T03:55:58.895Z,49.21
2024-01-14T03:58:26.396Z,49.17
2024-01-14T04:00:54.156Z,49.04
2024-01-14T04:03:21.792Z,48.82
2024-01-14T04:05:49.801Z,49.13
2024-01-14T04:08:17.361Z,49.19
2024-01-14T04:10:45.041Z,48.92
2024-01-14T04:13:32.261Z,49.04
2024-01-14T04:16:01.769Z,48.75
2024-01-14T04:18:30.464Z,48.99
2024-01-14T04:20:58.597Z,49.00
2024-01-14T04:23:26.028Z,49.12
2024-01-14T04:25:54.151Z,48.96
2024-01-14T04:28:21.920Z,49.09
2024-01-14T04:30:52.411Z,49.04
2024-01-14T04:33:19.978Z,48.88
2024-01-14T04:35:48.116Z,48.48
2024-01-14T04:38:15.523Z,48.61
2024-01-14T04:40:43.128Z,48.62
2024-01-14T04:43:12.839Z,48.73
2024-01-14T04:45:40.602Z,48.46
2024-01-14T04:48:08.268Z,48.57
2024-01-14T04:50:37.314Z,48.48
2024-01-14T04:53:04.733Z,48.38
2024-01-14T04:55:32.680Z,48.55
2024-01-14T04:58:00.346Z,48.29
2024-01-14T05:00:27.735Z,48.63
2024-01-14T05:02:55.357Z,48.57
2024-01-14T05:05:22.744Z,48.27
2024-01-14T05:07:50.374Z,48.41
2024-01-14T05:10:17.960Z,48.45
2024-01-14T05:12:45.568Z,48.20
2024-01-14T05:15:13.148Z,48.18
2024-01-14T05:17:41.035Z,48.52
2024-01-14T05:20:10.363Z,48.47
2024-01-14T05:22:37.941Z,48.24
2024-01-14T05:25:06.001Z,48.46
2024-01-14T05:27:33.634Z,48.40
2024-01-14T05:30:01.160Z,48.55
2024-01-14T05:32:29.105Z,48.81
2024-01-14T05:34:56.509Z,48.71
2024-01-14T05:37:24.174Z,48.90
2024-01-14T05:39:51.579Z,48.55
2024-01-14T05:42:19.176Z,48.67
2024-01-14T05:44:46.549Z,48.86
2024-01-14T05:47:14.092Z,48.47
2024-01-14T05:49:41.694Z,48.83
2024-01-14T05:52:09.341Z,48.73
2024-01-14T05:54:36.964Z,48.84
2024-01-14T05:57:05.371Z,48.76
2024-01-14T05:59:32.898Z,48.87
2024-01-14T06:02:00.562Z,48.53
2024-01-14T06:04:28.205Z,48.62
2024-01-14T06:06:55.900Z,48.67
2024-01-14T06:09:23.356Z,48.78
2024-01-14T06:11:51.098Z,48.90
2024-01-14T06:14:18.644Z,48.82
2024-01-14T06:16:46.377Z,48.74
2024-01-14T06:19:13.941Z,48.76
2024-01-14T06:21:43.355Z,48.44
2024-01-14T06:24:13.724Z,48.73
2024-01-14T06:26:41.460Z,48.61
2024-01-14T06:29:09.019Z,48.44
2024-01-14T06:31:36.978Z,48.79
2024-01-14T06:34:05.074Z,48.75
2024-01-14T06:36:32.951Z,48.40
2024-01-14T06:39:00.553Z,48.40
2024-01-14T06:41:29.314Z,48.58
2024-01-14T06:43:56.826Z,48.66
2024-01-14T06:46:24.545Z,48.56
2024-01-14T06:48:52.016Z,48.31
2024-01-14T06:51:19.519Z,48.48
2024-01-14T06:53:47.627Z,48.33
2024-01-14T06:56:17.613Z,48.45
2024-01-14T06:58:50.621Z,48.60
2024-01-14T07:01:18.111Z,48.68
2024-01-14T07:03:45.828Z,48.80
2024-01-14T07:06:13.398Z,48.53
2024-01-14T07:08:41.431Z,48.86
2024-01-14T07:11:08.859Z,48.62
2024-01-14T07:13:36.455Z,48.71
2024-01-14T07:16:04.252Z,48.88
2024-01-14T07:18:32.025Z,48.98
2024-01-14T07:20:59.545Z,49.05
2024-01-14T07:23:43.201Z,48.79
2024-01-14T07:26:21.753Z,49.03
2024-01-14T07:28:53.803Z,48.74
2024-01-14T07:31:24.244Z,49.23
2024-01-14T07:33:52.802Z,49.11
2024-01-14T07:36:21.157Z,48.98
2024-01-14T07:38:50.737Z,49.03
2024-01-14T07:41:18.186Z,49.08
2024-01-14T07:43:46.136Z,48.88
2024-01-14T07:46:13.695Z,49.02
2024-01-14T07:48:43.401Z,49.08
2024-01-14T07:51:11.154Z,49.15
2024-01-14T07:53:38.921Z,49.55
2024-01-14T07:56:06.610Z,49.11
2024-01-14T07:58:34.258Z,49.42
2024-01-14T08:01:03.498Z,49.46
2024-01-14T08:03:32.571Z,49.53
2024-01-14T08:06:01.242Z,49.32
2024-01-14T08:08:29.820Z,49.54
2024-01-14T08:10:57.353Z,49.57
2024-01-14T08:13:25.112Z,49.54
2024-01-14T08:15:57.851Z,49.53
2024-01-14T08:18:31.909Z,49.39
2024-01-14T08:21:00.484Z,49.51
2024-01-14T08:23:33.708Z,49.76
2024-01-14T08:26:02.662Z,49.59
2024-01-14T08:28:32.175Z,49.58
2024-01-14T08:30:59.808Z,49.24
2024-01-14T08:33:28.998Z,49.15
2024-01-14T08:35:57.113Z,49.58
2024-01-14T08:38:25.495Z,49.53
2024-01-14T08:40:53.530Z,49.34
2024-01-14T08:43:21.475Z,49.64
2024-01-14T08:45:48.885Z,49.67
2024-01-14T08:48:16.921Z,49.93
2024-01-14T08:50:44.444Z,49.84
2024-01-14T08:53:11.991Z,50.87
2024-01-14T08:55:39.434Z,51.74
2024-01-14T08:58:07.103Z,51.69
2024-01-14T09:00:34.694Z,51.80
2024-01-14T09:03:02.435Z,51.93
2024-01-14T09:05:29.975Z,51.93
2024-01-14T09:07:57.724Z,52.20
2024-01-14T09:10:25.154Z,52.10
2024-01-14T09:12:52.825Z,51.90
2024-01-14T09:15:21.749Z,52.19
2024-01-14T09:17:49.836Z,51.99
2024-01-14T09:20:17.382Z,52.38
2024-01-14T09:22:45.039Z,52.41
2024-01-14T09:25:13.588Z,52.46
2024-01-14T09:27:41.673Z,52.33
2024-01-14T09:30:09.525Z,52.53
2024-01-14T09:32:37.388Z,52.99
2024-01-14T09:35:05.379Z,53.00
2024-01-14T09:37:33.305Z,53.41
2024-01-14T09:40:00.712Z,53.77
2024-01-14T09:42:38.206Z,53.49
2024-01-14T09:45:06.975Z,53.35
2024-01-14T09:47:36.404Z,53.41
2024-01-14T09:50:04.499Z,53.76
2024-01-14T09:52:33.999Z,54.42
2024-01-14T09:55:02.368Z,52.89
2024-01-14T09:57:33.301Z,52.49
2024-01-14T10:00:06.643Z,52.13
2024-01-14T10:02:37.458Z,52.25
2024-01-14T10:05:05.486Z,53.07
2024-01-14T10:07:34.727Z,53.48
2024-01-14T10:10:02.185Z,53.37
2024-01-14T10:12:30.484Z,53.53
2024-01-14T10:15:01.866Z,53.72
2024-01-14T10:17:30.924Z,53.76
2024-01-14T10:20:01.932Z,53.98
2024-01-14T10:22:30.159Z,53.55
2024-01-14T10:24:58.180Z,53.93
2024-01-14T10:27:35.366Z,54.01
2024-01-14T10:30:14.005Z,54.38
2024-01-14T10:33:16.830Z,54.42
2024-01-14T10:35:31.669Z,54.80
2024-01-14T10:38:00.015Z,54.33
2024-01-14T10:40:28.011Z,54.67
2024-01-14T10:42:55.933Z,54.73
2024-01-14T10:45:23.698Z,54.63
2024-01-14T10:48:00.560Z,54.90
2024-01-14T10:53:04.627Z,54.73
2024-01-14T10:55:41.801Z,54.98
2024-01-14T10:58:18.959Z,54.86
2024-01-14T11:00:51.492Z,54.96
2024-01-14T11:03:19.950Z,54.35
2024-01-14T11:05:47.840Z,53.48
2024-01-14T11:08:17.686Z,53.52
2024-01-14T11:10:46.060Z,54.45
2024-01-14T11:13:29.607Z,54.67
2024-01-14T11:16:14.933Z,54.62
2024-01-14T11:18:59.290Z,54.62
2024-01-14T11:21:48.907Z,54.98
2024-01-14T11:24:26.760Z,54.45
2024-01-14T11:26:56.121Z,53.96
2024-01-14T11:29:33.320Z,53.95
2024-01-14T11:32:14.064Z,53.97
2024-01-14T11:34:48.286Z,53.92
2024-01-14T11:37:31.847Z,53.92
2024-01-14T11:40:17.855Z,53.93
2024-01-14T11:42:48.385Z,54.22
2024-01-14T11:45:25.469Z,53.89
2024-01-14T11:47:54.797Z,53.95
2024-01-14T11:50:25.171Z,53.68
2024-01-14T11:52:54.406Z,53.74
2024-01-14T11:55:26.288Z,54.08
2024-01-14T11:57:55.243Z,53.81
2024-01-14T12:00:25.452Z,53.71
2024-01-14T12:03:10.543Z,53.87
2024-01-14T12:05:40.585Z,53.56
2024-01-14T12:08:09.745Z,53.38
2024-01-14T12:10:37.717Z,53.72
2024-01-14T12:13:10.489Z,54.07
2024-01-14T12:15:39.853Z,54.05
2024-01-14T12:18:09.230Z,54.37
2024-01-14T12:20:37.396Z,54.37
2024-01-14T12:23:07.540Z,54.71
2024-01-14T12:25:37.446Z,54.96
2024-01-14T12:28:05.272Z,54.61
2024-01-14T12:30:36.303Z,54.78
2024-01-14T12:33:07.523Z,54.46
2024-01-14T12:35:39.867Z,54.10
2024-01-14T12:38:09.448Z,54.00
2024-01-14T12:40:37.998Z,53.74
2024-01-14T12:43:10.459Z,53.64
2024-01-14T12:45:49.874Z,53.38
2024-01-14T12:48:23.308Z,53.76
2024-01-14T12:51:01.908Z,53.64
2024-01-14T12:53:31.104Z,53.67
2024-01-14T12:56:12.665Z,53.58
2024-01-14T12:58:40.744Z,53.06
2024-01-14T13:01:10.689Z,52.99
2024-01-14T13:03:42.359Z,54.38
2024-01-14T13:06:10.227Z,53.90
2024-01-14T13:08:37.671Z,54.26
2024-01-14T13:11:05.480Z,54.14
2024-01-14T13:13:36.739Z,53.35
2024-01-14T13:16:05.729Z,54.23
2024-01-14T13:18:33.190Z,53.85
2024-01-14T13:21:00.852Z,53.78
2024-01-14T13:23:28.232Z,54.14
2024-01-14T13:25:55.846Z,54.38
2024-01-14T13:28:24.702Z,54.38
2024-01-14T13:30:53.768Z,54.70
2024-01-14T13:33:21.409Z,54.63
2024-01-14T13:35:49.085Z,55.73
2024-01-14T13:38:16.493Z,54.93
2024-01-14T13:40:44.379Z,55.17
2024-01-14T13:43:12.113Z,54.91
2024-01-14T13:45:39.693Z,54.67
2024-01-14T13:48:07.420Z,54.70
2024-01-14T13:50:35.430Z,54.51
2024-01-14T13:53:02.799Z,54.23
2024-01-14T13:55:30.479Z,53.83
2024-01-14T13:57:57.849Z,54.20
2024-01-14T14:00:25.651Z,54.32
2024-01-14T14:02:53.459Z,54.53
2024-01-14T14:05:21.293Z,54.72
2024-01-14T14:07:49.119Z,54.59
2024-01-14T14:10:17.524Z,55.15
2024-01-14T14:12:45.396Z,55.27
2024-01-14T14:15:13.183Z,55.20
2024-01-14T14:17:43.133Z,55.25
2024-01-14T14:20:12.188Z,55.34
2024-01-14T14:22:39.740Z,55.44
2024-01-14T14:25:07.785Z,55.30
2024-01-14T14:27:35.136Z,55.42
2024-01-14T14:30:03.183Z,55.54
2024-01-14T14:32:30.860Z,55.62
2024-01-14T14:34:58.712Z,55.42
2024-01-14T14:37:27.688Z,55.91
2024-01-14T14:39:55.676Z,55.64
2024-01-14T14:42:23.471Z,55.86
2024-01-14T14:44:51.078Z,55.84
2024-01-14T14:47:20.658Z,55.97
2024-01-14T14:49:49.439Z,54.80
2024-01-14T14:52:16.960Z,55.53
2024-01-14T14:54:44.548Z,54.97
2024-01-14T14:57:11.907Z,55.45
2024-01-14T14:59:39.588Z,55.41
2024-01-14T15:02:07.124Z,55.54
2024-01-14T15:04:34.745Z,55.27
2024-01-14T15:07:02.221Z,55.53
2024-01-14T15:09:29.931Z,55.82
2024-01-14T15:11:57.409Z,55.54
2024-01-14T15:14:25.448Z,55.94
2024-01-14T15:16:53.550Z,55.67
2024-01-14T15:19:21.340Z,56.00
2024-01-14T15:21:49.079Z,55.85
2024-01-14T15:24:16.814Z,56.24
2024-01-14T15:26:44.575Z,54.86
2024-01-14T15:29:12.181Z,55.15
2024-01-14T15:31:39.980Z,55.13
2024-01-14T15:34:08.266Z,55.54
2024-01-14T15:36:36.045Z,55.38
2024-01-14T15:39:04.898Z,55.40
2024-01-14T15:41:36.204Z,55.54
2024-01-14T15:44:04.677Z,55.38
2024-01-14T15:46:32.528Z,55.55
2024-01-14T15:49:00.216Z,55.78
2024-01-14T15:51:28.343Z,55.70
2024-01-14T15:53:56.017Z,55.52
2024-01-14T15:56:23.771Z,55.75
2024-01-14T15:58:51.348Z,55.76
2024-01-14T16:01:21.360Z,55.61
2024-01-14T16:03:50.036Z,55.33
2024-01-14T16:06:18.179Z,55.57
2024-01-14T16:08:46.904Z,55.59
2024-01-14T16:11:15.672Z,55.17
2024-01-14T16:13:43.573Z,55.49
2024-01-14T16:16:11.423Z,55.41
2024-01-14T16:18:39.124Z,55.48
2024-01-14T16:21:08.148Z,55.45
2024-01-14T16:23:39.504Z,55.43
2024-01-14T16:26:09.346Z,55.87
2024-01-14T16:28:37.731Z,55.50
2024-01-14T16:31:11.658Z,56.07
2024-01-14T16:33:44.273Z,55.61
2024-01-14T16:36:14.570Z,55.62
2024-01-14T16:38:43.162Z,55.61
2024-01-14T16:41:10.815Z,55.42
2024-01-14T16:43:38.932Z,55.34
2024-01-14T16:46:06.995Z,55.19
2024-01-14T16:48:35.397Z,55.17
2024-01-14T16:51:09.412Z,54.82
2024-01-14T16:53:41.321Z,54.93
2024-01-14T16:56:14.056Z,54.38
2024-01-14T16:58:44.044Z,54.42
2024-01-14T17:01:16.793Z,54.55
2024-01-14T17:03:50.216Z,54.16
2024-01-14T17:06:18.853Z,54.00
2024-01-14T17:08:47.822Z,54.13
2024-01-14T17:11:19.514Z,54.13
2024-01-14T17:13:47.932Z,53.93
2024-01-14T17:16:27.006Z,53.80
2024-01-14T17:18:59.607Z,53.89
2024-01-14T17:21:28.339Z,53.56
2024-01-14T17:23:57.360Z,53.74
2024-01-14T17:26:24.741Z,53.68
2024-01-14T17:28:52.391Z,53.64
2024-01-14T17:31:20.537Z,53.33
2024-01-14T17:33:48.750Z,53.33
2024-01-14T17:36:18.508Z,53.37
2024-01-14T17:38:48.386Z,53.23
2024-01-14T17:41:16.647Z,53.38
2024-01-14T17:43:45.044Z,53.06
2024-01-14T17:46:13.208Z,53.17
2024-01-14T17:48:44.170Z,53.31
2024-01-14T17:51:13.229Z,53.05
2024-01-14T17:53:42.547Z,53.10
2024-01-14T17:56:10.309Z,52.87
2024-01-14T17:58:38.837Z,53.08
2024-01-14T18:01:09.996Z,52.95
2024-01-14T18:03:40.616Z,52.64
2024-01-14T18:06:10.323Z,52.83
2024-01-14T18:08:38.631Z,52.63
2024-01-14T18:11:06.040Z,52.50
2024-01-14T18:13:33.629Z,52.62
2024-01-14T18:16:01.651Z,52.35
2024-01-14T18:18:29.604Z,52.37
2024-01-14T18:20:58.626Z,52.43
2024-01-14T18:23:26.296Z,52.35
2024-01-14T18:25:53.953Z,52.30
2024-01-14T18:28:21.669Z,52.48
2024-01-14T18:30:49.493Z,52.46
2024-01-14T18:33:17.444Z,52.07
2024-01-14T18:35:46.767Z,52.20
2024-01-14T18:38:16.124Z,52.37
2024-01-14T18:40:44.123Z,52.20
2024-01-14T18:43:12.582Z,51.93
2024-01-14T18:45:40.120Z,51.94
2024-01-14T18:48:08.870Z,51.79
2024-01-14T18:50:37.038Z,51.74
2024-01-14T18:53:05.938Z,51.51
2024-01-14T18:55:38.948Z,51.83
2024-01-14T18:58:10.224Z,51.94
2024-01-14T19:00:37.771Z,52.27
2024-01-14T19:03:05.901Z,52.46
2024-01-14T19:05:34.543Z,52.62
2024-01-14T19:08:02.221Z,52.83
2024-01-14T19:10:29.730Z,53.06
2024-01-14T19:13:00.201Z,52.86
2024-01-14T19:15:28.365Z,53.11
2024-01-14T19:17:56.340Z,53.17
2024-01-14T19:20:24.051Z,53.33
2024-01-14T19:22:52.005Z,53.34
2024-01-14T19:25:19.715Z,53.21
2024-01-14T19:27:48.642Z,53.53
2024-01-14T19:30:16.878Z,53.33
2024-01-14T19:32:44.901Z,53.56
2024-01-14T19:35:12.374Z,53.51
2024-01-14T19:37:40.273Z,53.37
2024-01-14T19:40:08.149Z,53.73
2024-01-14T19:42:35.998Z,53.56
2024-01-14T19:45:03.712Z,53.39
2024-01-14T19:47:31.497Z,53.49
2024-01-14T19:49:58.998Z,53.51
2024-01-14T19:52:26.767Z,53.42
2024-01-14T19:54:54.199Z,53.25
2024-01-14T19:57:21.937Z,53.27
2024-01-14T19:59:49.681Z,53.15
2024-01-14T20:02:17.450Z,53.52
2024-01-14T20:04:44.925Z,53.36
2024-01-14T20:07:12.606Z,53.31
2024-01-14T20:09:40.021Z,53.23
2024-01-14T20:12:07.681Z,53.12
2024-01-14T20:14:36.911Z,53.30
2024-01-14T20:17:05.676Z,53.07
2024-01-14T20:19:33.377Z,53.11
2024-01-14T20:22:01.266Z,53.00
2024-01-14T20:24:32.042Z,53.11
2024-01-14T20:26:59.741Z,53.05
2024-01-14T20:29:27.330Z,52.92
2024-01-14T20:31:55.160Z,52.76
2024-01-14T20:34:24.625Z,52.63
2024-01-14T20:36:53.528Z,52.58
2024-01-14T20:39:21.374Z,52.75
2024-01-14T20:41:49.120Z,52.58
2024-01-14T20:44:16.518Z,52.64
2024-01-14T20:46:44.390Z,52.58
2024-01-14T20:49:11.947Z,52.48
2024-01-14T20:51:39.873Z,52.48
2024-01-14T20:54:07.266Z,52.28
2024-01-14T20:56:35.039Z,52.26
2024-01-14T20:59:02.348Z,52.33
2024-01-14T21:01:35.187Z,52.28
2024-01-14T21:04:03.677Z,52.24
2024-01-14T21:06:32.396Z,52.27
2024-01-14T21:08:59.839Z,52.11
2024-01-14T21:11:27.706Z,52.20
2024-01-14T21:13:55.330Z,52.05
2024-01-14T21:16:23.034Z,52.01
2024-01-14T21:18:50.635Z,51.92
2024-01-14T21:21:25.315Z,51.87
2024-01-14T21:23:52.901Z,51.89
2024-01-14T21:26:20.552Z,51.75
2024-01-14T21:28:51.302Z,51.67
2024-01-14T21:31:19.124Z,51.81
2024-01-14T21:33:46.569Z,51.55
2024-01-14T21:36:14.868Z,51.60
2024-01-14T21:38:42.224Z,51.46
2024-01-14T21:41:10.420Z,51.44
2024-01-14T21:43:38.086Z,51.36
2024-01-14T21:46:07.134Z,51.19
2024-01-14T21:48:35.160Z,51.34
2024-01-14T21:51:03.178Z,51.22
2024-01-14T21:53:30.910Z,51.23
2024-01-14T21:55:58.632Z,51.14
2024-01-14T21:58:25.999Z,51.09
2024-01-14T22:00:54.187Z,50.88
2024-01-14T22:03:22.733Z,50.86
2024-01-14T22:05:50.886Z,50.88
2024-01-14T22:08:18.784Z,50.87
2024-01-14T22:10:46.426Z,50.65
2024-01-14T22:13:13.818Z,50.62
2024-01-14T22:15:42.184Z,50.66
2024-01-14T22:18:09.835Z,50.63
2024-01-14T22:20:37.571Z,50.61
2024-01-14T22:23:05.321Z,50.59
2024-01-14T22:25:32.947Z,50.58
2024-01-14T22:28:00.617Z,50.41
2024-01-14T22:30:28.330Z,50.39
2024-01-14T22:32:55.779Z,50.30
2024-01-14T22:35:25.523Z,50.38
2024-01-14T22:37:54.226Z,50.55
2024-01-14T22:40:21.842Z,50.17
2024-01-14T22:42:49.241Z,50.27
2024-01-14T22:45:17.197Z,50.33
2024-01-14T22:47:44.510Z,50.28
2024-01-14T22:50:12.055Z,50.13
2024-01-14T22:52:39.425Z,50.04
2024-01-14T22:55:07.337Z,50.11
2024-01-14T22:57:34.787Z,49.96
2024-01-14T23:00:02.896Z,50.12
2024-01-14T23:02:32.129Z,49.98
2024-01-14T23:05:00.855Z,50.06
2024-01-14T23:07:28.384Z,49.78
2024-01-14T23:09:56.114Z,49.65
2024-01-14T23:12:23.675Z,49.75
2024-01-14T23:14:51.343Z,49.74
2024-01-14T23:17:18.682Z,49.65
2024-01-14T23:19:46.509Z,49.66
2024-01-14T23:22:14.080Z,49.70
2024-01-14T23:24:41.721Z,49.63
2024-01-14T23:27:09.182Z,49.66
2024-01-14T23:29:37.282Z,49.54
2024-01-14T23:32:04.892Z,49.41
2024-01-14T23:34:32.761Z,49.66
2024-01-14T23:37:00.518Z,49.56
2024-01-14T23:39:28.136Z,49.49
2024-01-14T23:41:55.477Z,49.51
2024-01-14T23:44:23.088Z,49.26
2024-01-14T23:46:50.542Z,49.45
2024-01-14T23:49:18.232Z,49.35
2024-01-14T23:51:46.126Z,49.24
2024-01-14T23:54:13.869Z,49.30
2024-01-14T23:56:41.151Z,49.26
2024-01-14T23:59:08.897Z,49.30
